sensor_id;sensor_type;location;lat;lon;timestamp;temperature;humidity
30288;DHT22;17103;48.316;11.558;2022-07-23T00:01:17;30.40;38.10
30288;DHT22;17103;48.316;11.558;2022-07-23T00:03:42;30.50;38.20
30288;DHT22;17103;48.316;11.558;2022-07-23T00:06:08;30.40;38.30
30288;DHT22;17103;48.316;11.558;2022-07-23T00:08:34;30.30;38.40
30288;DHT22;17103;48.316;11.558;2022-07-23T00:10:59;30.20;38.30
30288;DHT22;17103;48.316;11.558;2022-07-23T00:13:26;30.20;38.70
30288;DHT22;17103;48.316;11.558;2022-07-23T00:15:52;30.30;38.80
30288;DHT22;17103;48.316;11.558;2022-07-23T00:18:18;30.20;38.80
30288;DHT22;17103;48.316;11.558;2022-07-23T00:20:43;30.00;38.60
30288;DHT22;17103;48.316;11.558;2022-07-23T00:23:09;30.00;39.10
30288;DHT22;17103;48.316;11.558;2022-07-23T00:25:35;30.10;39.20
30288;DHT22;17103;48.316;11.558;2022-07-23T00:28:01;29.90;39.20
30288;DHT22;17103;48.316;11.558;2022-07-23T00:30:27;30.00;39.30
30288;DHT22;17103;48.316;11.558;2022-07-23T00:33:00;30.00;39.40
30288;DHT22;17103;48.316;11.558;2022-07-23T00:35:28;29.90;39.70
30288;DHT22;17103;48.316;11.558;2022-07-23T00:37:54;29.90;39.40
30288;DHT22;17103;48.316;11.558;2022-07-23T00:40:21;29.90;39.40
30288;DHT22;17103;48.316;11.558;2022-07-23T00:42:46;29.70;39.40
30288;DHT22;17103;48.316;11.558;2022-07-23T00:45:12;29.60;39.60
30288;DHT22;17103;48.316;11.558;2022-07-23T00:47:38;29.50;39.80
30288;DHT22;17103;48.316;11.558;2022-07-23T00:50:06;29.40;39.70
30288;DHT22;17103;48.316;11.558;2022-07-23T00:52:33;29.40;39.90
30288;DHT22;17103;48.316;11.558;2022-07-23T00:55:00;29.30;40.00
30288;DHT22;17103;48.316;11.558;2022-07-23T00:57:26;29.20;40.30
30288;DHT22;17103;48.316;11.558;2022-07-23T00:59:51;29.10;40.10
30288;DHT22;17103;48.316;11.558;2022-07-23T01:02:17;28.90;39.90
30288;DHT22;17103;48.316;11.558;2022-07-23T01:04:43;28.80;40.10
30288;DHT22;17103;48.316;11.558;2022-07-23T01:07:08;28.70;40.10
30288;DHT22;17103;48.316;11.558;2022-07-23T01:09:34;28.60;40.70
30288;DHT22;17103;48.316;11.558;2022-07-23T01:12:00;28.60;41.40
30288;DHT22;17103;48.316;11.558;2022-07-23T01:14:26;28.40;41.50
30288;DHT22;17103;48.316;11.558;2022-07-23T01:16:52;28.40;42.10
30288;DHT22;17103;48.316;11.558;2022-07-23T01:19:19;28.10;42.30
30288;DHT22;17103;48.316;11.558;2022-07-23T01:21:47;27.90;42.20
30288;DHT22;17103;48.316;11.558;2022-07-23T01:24:14;27.70;42.10
30288;DHT22;17103;48.316;11.558;2022-07-23T01:26:45;27.50;41.80
30288;DHT22;17103;48.316;11.558;2022-07-23T01:29:12;27.30;40.80
30288;DHT22;17103;48.316;11.558;2022-07-23T01:31:38;27.10;39.50
30288;DHT22;17103;48.316;11.558;2022-07-23T01:34:04;26.90;38.50
30288;DHT22;17103;48.316;11.558;2022-07-23T01:36:30;26.80;39.80
30288;DHT22;17103;48.316;11.558;2022-07-23T01:38:55;26.60;40.40
30288;DHT22;17103;48.316;11.558;2022-07-23T01:41:21;26.50;41.20
30288;DHT22;17103;48.316;11.558;2022-07-23T01:43:47;26.40;42.30
30288;DHT22;17103;48.316;11.558;2022-07-23T01:46:14;26.30;43.00
30288;DHT22;17103;48.316;11.558;2022-07-23T01:48:42;26.30;44.50
30288;DHT22;17103;48.316;11.558;2022-07-23T01:51:11;26.10;44.70
30288;DHT22;17103;48.316;11.558;2022-07-23T01:53:36;25.90;45.20
30288;DHT22;17103;48.316;11.558;2022-07-23T01:56:02;25.00;45.20
30288;DHT22;17103;48.316;11.558;2022-07-23T01:58:29;25.50;46.50
30288;DHT22;17103;48.316;11.558;2022-07-23T02:00:54;25.30;46.80
30288;DHT22;17103;48.316;11.558;2022-07-23T02:03:20;25.10;47.60
30288;DHT22;17103;48.316;11.558;2022-07-23T02:05:46;24.90;48.20
30288;DHT22;17103;48.316;11.558;2022-07-23T02:08:12;24.70;48.50
30288;DHT22;17103;48.316;11.558;2022-07-23T02:10:38;24.50;49.10
30288;DHT22;17103;48.316;11.558;2022-07-23T02:13:04;24.30;49.50
30288;DHT22;17103;48.316;11.558;2022-07-23T02:15:29;24.20;49.90
30288;DHT22;17103;48.316;11.558;2022-07-23T02:17:55;24.00;49.60
30288;DHT22;17103;48.316;11.558;2022-07-23T02:20:23;23.90;49.60
30288;DHT22;17103;48.316;11.558;2022-07-23T02:22:49;23.80;49.90
30288;DHT22;17103;48.316;11.558;2022-07-23T02:25:14;23.80;49.90
30288;DHT22;17103;48.316;11.558;2022-07-23T02:27:40;23.80;49.70
30288;DHT22;17103;48.316;11.558;2022-07-23T02:30:07;23.80;49.70
30288;DHT22;17103;48.316;11.558;2022-07-23T02:32:32;23.80;50.00
30288;DHT22;17103;48.316;11.558;2022-07-23T02:34:58;23.80;49.70
30288;DHT22;17103;48.316;11.558;2022-07-23T02:37:24;23.70;49.40
30288;DHT22;17103;48.316;11.558;2022-07-23T02:39:50;23.90;49.70
30288;DHT22;17103;48.316;11.558;2022-07-23T02:42:16;23.90;49.80
30288;DHT22;17103;48.316;11.558;2022-07-23T02:44:43;24.00;49.80
30288;DHT22;17103;48.316;11.558;2022-07-23T02:47:08;24.10;49.50
30288;DHT22;17103;48.316;11.558;2022-07-23T02:49:34;24.20;49.50
30288;DHT22;17103;48.316;11.558;2022-07-23T02:52:00;24.30;49.30
30288;DHT22;17103;48.316;11.558;2022-07-23T02:54:25;24.40;49.50
30288;DHT22;17103;48.316;11.558;2022-07-23T02:56:51;24.50;49.20
30288;DHT22;17103;48.316;11.558;2022-07-23T02:59:17;24.60;49.10
30288;DHT22;17103;48.316;11.558;2022-07-23T03:01:43;24.60;49.10
30288;DHT22;17103;48.316;11.558;2022-07-23T03:04:09;24.80;49.10
30288;DHT22;17103;48.316;11.558;2022-07-23T03:06:35;24.80;48.90
30288;DHT22;17103;48.316;11.558;2022-07-23T03:09:01;24.90;48.70
30288;DHT22;17103;48.316;11.558;2022-07-23T03:11:27;25.00;48.70
30288;DHT22;17103;48.316;11.558;2022-07-23T03:13:53;25.10;48.60
30288;DHT22;17103;48.316;11.558;2022-07-23T03:16:18;25.00;48.50
30288;DHT22;17103;48.316;11.558;2022-07-23T03:18:44;25.20;48.50
30288;DHT22;17103;48.316;11.558;2022-07-23T03:21:10;25.20;48.40
30288;DHT22;17103;48.316;11.558;2022-07-23T03:23:35;25.30;48.40
30288;DHT22;17103;48.316;11.558;2022-07-23T03:26:01;25.40;47.90
30288;DHT22;17103;48.316;11.558;2022-07-23T03:28:27;25.40;47.60
30288;DHT22;17103;48.316;11.558;2022-07-23T03:30:52;25.40;47.90
30288;DHT22;17103;48.316;11.558;2022-07-23T03:33:19;25.40;48.10
30288;DHT22;17103;48.316;11.558;2022-07-23T03:35:46;25.50;48.20
30288;DHT22;17103;48.316;11.558;2022-07-23T03:38:13;25.60;48.20
30288;DHT22;17103;48.316;11.558;2022-07-23T03:40:38;25.50;48.10
30288;DHT22;17103;48.316;11.558;2022-07-23T03:43:05;25.60;47.90
30288;DHT22;17103;48.316;11.558;2022-07-23T03:45:31;25.70;48.20
30288;DHT22;17103;48.316;11.558;2022-07-23T03:47:57;25.70;48.50
30288;DHT22;17103;48.316;11.558;2022-07-23T03:50:23;25.60;48.20
30288;DHT22;17103;48.316;11.558;2022-07-23T03:52:48;25.60;48.10
30288;DHT22;17103;48.316;11.558;2022-07-23T03:55:14;25.50;47.90
30288;DHT22;17103;48.316;11.558;2022-07-23T03:57:40;25.50;48.10
30288;DHT22;17103;48.316;11.558;2022-07-23T04:00:07;25.40;48.20
30288;DHT22;17103;48.316;11.558;2022-07-23T04:02:35;25.30;48.50
30288;DHT22;17103;48.316;11.558;2022-07-23T04:05:01;25.30;48.40
30288;DHT22;17103;48.316;11.558;2022-07-23T04:07:27;25.30;49.20
30288;DHT22;17103;48.316;11.558;2022-07-23T04:09:52;25.20;48.50
30288;DHT22;17103;48.316;11.558;2022-07-23T04:12:18;25.20;48.70
30288;DHT22;17103;48.316;11.558;2022-07-23T04:14:44;25.20;48.70
30288;DHT22;17103;48.316;11.558;2022-07-23T04:17:10;25.10;48.30
30288;DHT22;17103;48.316;11.558;2022-07-23T04:19:36;25.10;48.40
30288;DHT22;17103;48.316;11.558;2022-07-23T04:22:06;25.00;48.50
30288;DHT22;17103;48.316;11.558;2022-07-23T04:24:32;25.00;48.30
30288;DHT22;17103;48.316;11.558;2022-07-23T04:26:57;25.00;48.80
30288;DHT22;17103;48.316;11.558;2022-07-23T04:29:23;24.90;48.80
30288;DHT22;17103;48.316;11.558;2022-07-23T04:31:49;24.90;48.90
30288;DHT22;17103;48.316;11.558;2022-07-23T04:34:15;24.90;49.10
30288;DHT22;17103;48.316;11.558;2022-07-23T04:36:42;24.90;49.20
30288;DHT22;17103;48.316;11.558;2022-07-23T04:39:08;25.00;48.60
30288;DHT22;17103;48.316;11.558;2022-07-23T04:41:33;25.00;49.00
30288;DHT22;17103;48.316;11.558;2022-07-23T04:44:00;25.00;49.40
30288;DHT22;17103;48.316;11.558;2022-07-23T04:46:26;25.00;49.50
30288;DHT22;17103;48.316;11.558;2022-07-23T04:48:51;25.00;49.50
30288;DHT22;17103;48.316;11.558;2022-07-23T04:51:17;25.00;49.60
30288;DHT22;17103;48.316;11.558;2022-07-23T04:53:43;25.00;49.70
30288;DHT22;17103;48.316;11.558;2022-07-23T04:56:08;25.00;49.80
30288;DHT22;17103;48.316;11.558;2022-07-23T04:58:34;25.00;49.80
30288;DHT22;17103;48.316;11.558;2022-07-23T05:01:01;25.10;49.80
30288;DHT22;17103;48.316;11.558;2022-07-23T05:03:27;25.10;49.80
30288;DHT22;17103;48.316;11.558;2022-07-23T05:05:52;25.20;49.40
30288;DHT22;17103;48.316;11.558;2022-07-23T05:08:19;25.20;49.60
30288;DHT22;17103;48.316;11.558;2022-07-23T05:10:45;25.20;49.50
30288;DHT22;17103;48.316;11.558;2022-07-23T05:13:11;25.30;49.50
30288;DHT22;17103;48.316;11.558;2022-07-23T05:15:38;25.30;49.60
30288;DHT22;17103;48.316;11.558;2022-07-23T05:18:04;25.30;49.60
30288;DHT22;17103;48.316;11.558;2022-07-23T05:20:30;25.40;49.60
30288;DHT22;17103;48.316;11.558;2022-07-23T05:22:57;25.40;49.60
30288;DHT22;17103;48.316;11.558;2022-07-23T05:25:22;25.40;49.40
30288;DHT22;17103;48.316;11.558;2022-07-23T05:27:48;25.40;48.90
30288;DHT22;17103;48.316;11.558;2022-07-23T05:30:14;25.50;49.10
30288;DHT22;17103;48.316;11.558;2022-07-23T05:32:39;25.50;48.90
30288;DHT22;17103;48.316;11.558;2022-07-23T05:35:06;25.50;49.00
30288;DHT22;17103;48.316;11.558;2022-07-23T05:37:31;25.40;49.10
30288;DHT22;17103;48.316;11.558;2022-07-23T05:40:05;25.40;49.10
30288;DHT22;17103;48.316;11.558;2022-07-23T05:42:33;25.40;49.20
30288;DHT22;17103;48.316;11.558;2022-07-23T05:44:59;25.40;49.10
30288;DHT22;17103;48.316;11.558;2022-07-23T05:47:24;25.30;49.10
30288;DHT22;17103;48.316;11.558;2022-07-23T05:49:50;25.30;49.30
30288;DHT22;17103;48.316;11.558;2022-07-23T05:52:15;25.20;49.40
30288;DHT22;17103;48.316;11.558;2022-07-23T05:54:41;25.20;49.70
30288;DHT22;17103;48.316;11.558;2022-07-23T05:57:08;25.20;50.00
30288;DHT22;17103;48.316;11.558;2022-07-23T05:59:33;25.20;50.20
30288;DHT22;17103;48.316;11.558;2022-07-23T06:01:59;25.10;50.30
30288;DHT22;17103;48.316;11.558;2022-07-23T06:04:25;25.10;50.50
30288;DHT22;17103;48.316;11.558;2022-07-23T06:06:51;25.00;50.90
30288;DHT22;17103;48.316;11.558;2022-07-23T06:09:17;25.00;50.40
30288;DHT22;17103;48.316;11.558;2022-07-23T06:11:43;25.00;50.60
30288;DHT22;17103;48.316;11.558;2022-07-23T06:14:09;25.00;50.60
30288;DHT22;17103;48.316;11.558;2022-07-23T06:16:35;25.10;50.90
30288;DHT22;17103;48.316;11.558;2022-07-23T06:19:01;25.10;51.00
30288;DHT22;17103;48.316;11.558;2022-07-23T06:21:26;25.10;51.10
30288;DHT22;17103;48.316;11.558;2022-07-23T06:23:52;25.10;50.90
30288;DHT22;17103;48.316;11.558;2022-07-23T06:26:17;25.10;50.70
30288;DHT22;17103;48.316;11.558;2022-07-23T06:28:43;25.10;50.80
30288;DHT22;17103;48.316;11.558;2022-07-23T06:31:09;25.10;50.80
30288;DHT22;17103;48.316;11.558;2022-07-23T06:33:35;25.10;50.80
30288;DHT22;17103;48.316;11.558;2022-07-23T06:36:01;25.20;50.90
30288;DHT22;17103;48.316;11.558;2022-07-23T06:38:27;25.20;50.90
30288;DHT22;17103;48.316;11.558;2022-07-23T06:40:52;25.20;51.00
30288;DHT22;17103;48.316;11.558;2022-07-23T06:43:19;25.20;51.00
30288;DHT22;17103;48.316;11.558;2022-07-23T06:45:44;25.40;51.60
30288;DHT22;17103;48.316;11.558;2022-07-23T06:48:10;25.40;51.80
30288;DHT22;17103;48.316;11.558;2022-07-23T06:50:36;25.40;52.00
30288;DHT22;17103;48.316;11.558;2022-07-23T06:53:01;25.40;51.40
30288;DHT22;17103;48.316;11.558;2022-07-23T06:55:27;25.40;51.00
30288;DHT22;17103;48.316;11.558;2022-07-23T06:57:53;25.40;51.50
30288;DHT22;17103;48.316;11.558;2022-07-23T07:00:19;25.30;51.50
30288;DHT22;17103;48.316;11.558;2022-07-23T07:02:44;25.20;52.30
30288;DHT22;17103;48.316;11.558;2022-07-23T07:05:10;25.10;52.00
30288;DHT22;17103;48.316;11.558;2022-07-23T07:07:36;25.00;52.00
30288;DHT22;17103;48.316;11.558;2022-07-23T07:10:04;24.90;52.00
30288;DHT22;17103;48.316;11.558;2022-07-23T07:12:29;24.80;52.20
30288;DHT22;17103;48.316;11.558;2022-07-23T07:14:55;24.80;52.90
30288;DHT22;17103;48.316;11.558;2022-07-23T07:17:22;24.70;52.60
30288;DHT22;17103;48.316;11.558;2022-07-23T07:19:47;24.70;52.80
30288;DHT22;17103;48.316;11.558;2022-07-23T07:22:13;24.60;53.00
30288;DHT22;17103;48.316;11.558;2022-07-23T07:24:40;24.60;52.80
30288;DHT22;17103;48.316;11.558;2022-07-23T07:27:06;24.60;53.20
30288;DHT22;17103;48.316;11.558;2022-07-23T07:29:31;24.60;52.90
30288;DHT22;17103;48.316;11.558;2022-07-23T07:31:57;24.50;53.00
30288;DHT22;17103;48.316;11.558;2022-07-23T07:34:23;24.50;53.00
30288;DHT22;17103;48.316;11.558;2022-07-23T07:36:49;24.50;53.20
30288;DHT22;17103;48.316;11.558;2022-07-23T07:39:15;24.50;53.20
30288;DHT22;17103;48.316;11.558;2022-07-23T07:41:41;24.60;53.00
30288;DHT22;17103;48.316;11.558;2022-07-23T07:44:06;24.60;53.60
30288;DHT22;17103;48.316;11.558;2022-07-23T07:46:32;24.60;53.50
30288;DHT22;17103;48.316;11.558;2022-07-23T07:48:58;24.60;53.50
30288;DHT22;17103;48.316;11.558;2022-07-23T07:51:24;24.60;53.80
30288;DHT22;17103;48.316;11.558;2022-07-23T07:53:49;24.60;53.20
30288;DHT22;17103;48.316;11.558;2022-07-23T07:56:15;24.60;53.70
30288;DHT22;17103;48.316;11.558;2022-07-23T07:58:41;24.60;53.80
30288;DHT22;17103;48.316;11.558;2022-07-23T08:01:06;24.60;54.00
30288;DHT22;17103;48.316;11.558;2022-07-23T08:03:32;24.60;54.00
30288;DHT22;17103;48.316;11.558;2022-07-23T08:05:58;24.60;53.80
30288;DHT22;17103;48.316;11.558;2022-07-23T08:08:24;24.60;54.30
30288;DHT22;17103;48.316;11.558;2022-07-23T08:10:50;24.60;54.40
30288;DHT22;17103;48.316;11.558;2022-07-23T08:13:16;24.60;54.00
30288;DHT22;17103;48.316;11.558;2022-07-23T08:15:43;24.60;54.20
30288;DHT22;17103;48.316;11.558;2022-07-23T08:18:09;24.60;54.20
30288;DHT22;17103;48.316;11.558;2022-07-23T08:20:35;24.60;53.60
30288;DHT22;17103;48.316;11.558;2022-07-23T08:23:06;24.70;54.20
30288;DHT22;17103;48.316;11.558;2022-07-23T08:25:35;24.70;54.40
30288;DHT22;17103;48.316;11.558;2022-07-23T08:28:02;24.60;54.40
30288;DHT22;17103;48.316;11.558;2022-07-23T08:30:30;24.70;54.60
30288;DHT22;17103;48.316;11.558;2022-07-23T08:33:12;24.70;54.90
30288;DHT22;17103;48.316;11.558;2022-07-23T08:35:47;24.70;54.60
30288;DHT22;17103;48.316;11.558;2022-07-23T08:38:15;24.70;54.40
30288;DHT22;17103;48.316;11.558;2022-07-23T08:40:46;24.70;54.50
30288;DHT22;17103;48.316;11.558;2022-07-23T08:43:17;24.80;55.00
30288;DHT22;17103;48.316;11.558;2022-07-23T08:45:44;24.80;54.90
30288;DHT22;17103;48.316;11.558;2022-07-23T08:48:20;24.80;54.90
30288;DHT22;17103;48.316;11.558;2022-07-23T08:50:54;24.80;55.30
30288;DHT22;17103;48.316;11.558;2022-07-23T08:53:22;24.80;54.90
30288;DHT22;17103;48.316;11.558;2022-07-23T08:55:50;24.80;55.40
30288;DHT22;17103;48.316;11.558;2022-07-23T08:58:16;24.70;55.70
30288;DHT22;17103;48.316;11.558;2022-07-23T09:00:42;24.80;56.00
30288;DHT22;17103;48.316;11.558;2022-07-23T09:03:16;24.80;55.90
30288;DHT22;17103;48.316;11.558;2022-07-23T09:05:41;24.80;55.40
30288;DHT22;17103;48.316;11.558;2022-07-23T09:08:14;24.90;55.50
30288;DHT22;17103;48.316;11.558;2022-07-23T09:13:42;24.90;55.60
30288;DHT22;17103;48.316;11.558;2022-07-23T09:16:20;25.00;56.10
30288;DHT22;17103;48.316;11.558;2022-07-23T09:18:53;25.10;56.30
30288;DHT22;17103;48.316;11.558;2022-07-23T09:21:24;25.20;56.20
30288;DHT22;17103;48.316;11.558;2022-07-23T09:23:53;25.20;55.90
30288;DHT22;17103;48.316;11.558;2022-07-23T09:29:00;25.40;55.50
30288;DHT22;17103;48.316;11.558;2022-07-23T09:31:44;25.40;55.60
30288;DHT22;17103;48.316;11.558;2022-07-23T09:34:31;25.40;55.30
30288;DHT22;17103;48.316;11.558;2022-07-23T09:39:40;25.60;55.60
30288;DHT22;17103;48.316;11.558;2022-07-23T09:42:26;25.70;55.20
30288;DHT22;17103;48.316;11.558;2022-07-23T09:44:54;25.80;55.10
30288;DHT22;17103;48.316;11.558;2022-07-23T09:47:21;25.80;55.10
30288;DHT22;17103;48.316;11.558;2022-07-23T09:50:04;25.90;54.80
30288;DHT22;17103;48.316;11.558;2022-07-23T09:52:44;25.90;53.80
30288;DHT22;17103;48.316;11.558;2022-07-23T09:55:10;25.90;54.30
30288;DHT22;17103;48.316;11.558;2022-07-23T09:57:36;26.00;54.10
30288;DHT22;17103;48.316;11.558;2022-07-23T10:00:05;26.10;54.10
30288;DHT22;17103;48.316;11.558;2022-07-23T10:02:32;26.10;54.00
30288;DHT22;17103;48.316;11.558;2022-07-23T10:04:59;26.20;54.00
30288;DHT22;17103;48.316;11.558;2022-07-23T10:07:26;26.30;54.00
30288;DHT22;17103;48.316;11.558;2022-07-23T10:09:53;26.30;53.90
30288;DHT22;17103;48.316;11.558;2022-07-23T10:12:19;26.40;53.40
30288;DHT22;17103;48.316;11.558;2022-07-23T10:15:05;26.40;53.50
30288;DHT22;17103;48.316;11.558;2022-07-23T10:17:32;26.50;53.70
30288;DHT22;17103;48.316;11.558;2022-07-23T10:19:58;26.60;54.00
30288;DHT22;17103;48.316;11.558;2022-07-23T10:22:27;26.70;53.20
30288;DHT22;17103;48.316;11.558;2022-07-23T10:25:09;26.80;53.50
30288;DHT22;17103;48.316;11.558;2022-07-23T10:27:58;26.90;53.30
30288;DHT22;17103;48.316;11.558;2022-07-23T10:30:59;26.60;53.00
30288;DHT22;17103;48.316;11.558;2022-07-23T10:33:43;27.10;53.30
30288;DHT22;17103;48.316;11.558;2022-07-23T10:36:20;27.20;53.20
30288;DHT22;17103;48.316;11.558;2022-07-23T10:39:10;27.30;53.50
30288;DHT22;17103;48.316;11.558;2022-07-23T10:41:41;27.40;52.90
30288;DHT22;17103;48.316;11.558;2022-07-23T10:44:19;27.50;51.30
30288;DHT22;17103;48.316;11.558;2022-07-23T10:47:00;27.60;50.80
30288;DHT22;17103;48.316;11.558;2022-07-23T10:49:35;27.60;50.50
30288;DHT22;17103;48.316;11.558;2022-07-23T10:52:20;27.70;50.40
30288;DHT22;17103;48.316;11.558;2022-07-23T10:54:49;27.80;49.00
30288;DHT22;17103;48.316;11.558;2022-07-23T10:57:18;27.90;48.20
30288;DHT22;17103;48.316;11.558;2022-07-23T11:02:36;28.00;47.00
30288;DHT22;17103;48.316;11.558;2022-07-23T11:05:09;28.10;45.40
30288;DHT22;17103;48.316;11.558;2022-07-23T11:07:36;28.00;45.80
30288;DHT22;17103;48.316;11.558;2022-07-23T11:10:03;28.10;45.30
30288;DHT22;17103;48.316;11.558;2022-07-23T11:15:02;28.20;45.00
30288;DHT22;17103;48.316;11.558;2022-07-23T11:17:29;28.20;45.60
30288;DHT22;17103;48.316;11.558;2022-07-23T11:20:13;28.30;45.10
30288;DHT22;17103;48.316;11.558;2022-07-23T11:25:11;28.40;43.90
30288;DHT22;17103;48.316;11.558;2022-07-23T11:27:42;28.30;42.80
30288;DHT22;17103;48.316;11.558;2022-07-23T11:30:10;28.40;43.40
30288;DHT22;17103;48.316;11.558;2022-07-23T11:32:39;28.40;43.40
30288;DHT22;17103;48.316;11.558;2022-07-23T11:35:26;28.50;43.60
30288;DHT22;17103;48.316;11.558;2022-07-23T11:37:54;28.50;43.50
30288;DHT22;17103;48.316;11.558;2022-07-23T11:40:28;28.60;43.50
30288;DHT22;17103;48.316;11.558;2022-07-23T11:43:04;28.50;44.00
30288;DHT22;17103;48.316;11.558;2022-07-23T11:45:52;28.60;43.30
30288;DHT22;17103;48.316;11.558;2022-07-23T11:48:24;28.60;43.40
30288;DHT22;17103;48.316;11.558;2022-07-23T11:50:51;28.50;43.20
30288;DHT22;17103;48.316;11.558;2022-07-23T11:53:29;28.50;43.30
30288;DHT22;17103;48.316;11.558;2022-07-23T11:56:04;28.50;43.50
30288;DHT22;17103;48.316;11.558;2022-07-23T11:58:30;28.50;43.40
30288;DHT22;17103;48.316;11.558;2022-07-23T12:00:56;28.60;44.50
30288;DHT22;17103;48.316;11.558;2022-07-23T12:03:22;28.60;43.90
30288;DHT22;17103;48.316;11.558;2022-07-23T12:05:49;28.70;44.00
30288;DHT22;17103;48.316;11.558;2022-07-23T12:08:15;28.70;43.20
30288;DHT22;17103;48.316;11.558;2022-07-23T12:10:43;28.70;43.10
30288;DHT22;17103;48.316;11.558;2022-07-23T12:13:14;28.70;42.90
30288;DHT22;17103;48.316;11.558;2022-07-23T12:15:46;28.70;43.10
30288;DHT22;17103;48.316;11.558;2022-07-23T12:18:17;28.70;43.40
30288;DHT22;17103;48.316;11.558;2022-07-23T12:20:52;28.80;43.50
30288;DHT22;17103;48.316;11.558;2022-07-23T12:23:21;28.80;43.10
30288;DHT22;17103;48.316;11.558;2022-07-23T12:25:49;28.80;43.30
30288;DHT22;17103;48.316;11.558;2022-07-23T12:28:20;28.80;43.50
30288;DHT22;17103;48.316;11.558;2022-07-23T12:30:48;28.80;43.60
30288;DHT22;17103;48.316;11.558;2022-07-23T12:33:36;28.90;43.60
30288;DHT22;17103;48.316;11.558;2022-07-23T12:36:04;28.90;43.10
30288;DHT22;17103;48.316;11.558;2022-07-23T12:38:46;29.00;43.30
30288;DHT22;17103;48.316;11.558;2022-07-23T12:41:12;29.00;42.90
30288;DHT22;17103;48.316;11.558;2022-07-23T12:43:41;29.00;43.10
30288;DHT22;17103;48.316;11.558;2022-07-23T12:46:16;29.20;43.50
30288;DHT22;17103;48.316;11.558;2022-07-23T12:51:18;29.30;43.20
30288;DHT22;17103;48.316;11.558;2022-07-23T12:53:47;29.30;43.00
30288;DHT22;17103;48.316;11.558;2022-07-23T12:56:28;29.30;42.80
30288;DHT22;17103;48.316;11.558;2022-07-23T13:01:34;29.40;42.90
30288;DHT22;17103;48.316;11.558;2022-07-23T13:04:15;29.40;42.80
30288;DHT22;17103;48.316;11.558;2022-07-23T13:06:44;29.50;43.20
30288;DHT22;17103;48.316;11.558;2022-07-23T13:09:16;29.60;43.00
30288;DHT22;17103;48.316;11.558;2022-07-23T13:11:44;29.60;42.50
30288;DHT22;17103;48.316;11.558;2022-07-23T13:14:12;29.60;42.10
30288;DHT22;17103;48.316;11.558;2022-07-23T13:16:39;29.60;42.50
30288;DHT22;17103;48.316;11.558;2022-07-23T13:19:10;29.60;42.50
30288;DHT22;17103;48.316;11.558;2022-07-23T13:21:37;29.50;42.40
30288;DHT22;17103;48.316;11.558;2022-07-23T13:24:03;29.50;42.50
30288;DHT22;17103;48.316;11.558;2022-07-23T13:26:29;29.40;42.60
30288;DHT22;17103;48.316;11.558;2022-07-23T13:28:55;29.40;42.60
30288;DHT22;17103;48.316;11.558;2022-07-23T13:31:21;29.40;42.60
30288;DHT22;17103;48.316;11.558;2022-07-23T13:33:47;29.30;42.60
30288;DHT22;17103;48.316;11.558;2022-07-23T13:36:13;29.30;42.90
30288;DHT22;17103;48.316;11.558;2022-07-23T13:38:40;29.30;43.60
30288;DHT22;17103;48.316;11.558;2022-07-23T13:41:05;29.30;43.30
30288;DHT22;17103;48.316;11.558;2022-07-23T13:43:32;29.20;43.60
30288;DHT22;17103;48.316;11.558;2022-07-23T13:45:58;29.20;43.80
30288;DHT22;17103;48.316;11.558;2022-07-23T13:48:25;29.30;43.80
30288;DHT22;17103;48.316;11.558;2022-07-23T13:50:51;29.40;44.10
30288;DHT22;17103;48.316;11.558;2022-07-23T13:53:19;29.40;44.00
30288;DHT22;17103;48.316;11.558;2022-07-23T13:55:46;29.50;43.50
30288;DHT22;17103;48.316;11.558;2022-07-23T13:58:12;29.60;43.20
30288;DHT22;17103;48.316;11.558;2022-07-23T14:00:41;29.60;43.30
30288;DHT22;17103;48.316;11.558;2022-07-23T14:03:07;29.60;43.30
30288;DHT22;17103;48.316;11.558;2022-07-23T14:05:33;29.50;43.20
30288;DHT22;17103;48.316;11.558;2022-07-23T14:08:03;29.50;43.30
30288;DHT22;17103;48.316;11.558;2022-07-23T14:10:29;29.50;43.40
30288;DHT22;17103;48.316;11.558;2022-07-23T14:12:55;29.50;43.60
30288;DHT22;17103;48.316;11.558;2022-07-23T14:15:27;29.50;43.50
30288;DHT22;17103;48.316;11.558;2022-07-23T14:17:54;29.50;43.60
30288;DHT22;17103;48.316;11.558;2022-07-23T14:20:21;29.40;43.60
30288;DHT22;17103;48.316;11.558;2022-07-23T14:22:47;29.30;43.70
30288;DHT22;17103;48.316;11.558;2022-07-23T14:25:15;29.30;43.80
30288;DHT22;17103;48.316;11.558;2022-07-23T14:27:41;29.30;43.90
30288;DHT22;17103;48.316;11.558;2022-07-23T14:30:08;29.20;44.00
30288;DHT22;17103;48.316;11.558;2022-07-23T14:32:35;29.20;44.00
30288;DHT22;17103;48.316;11.558;2022-07-23T14:35:04;29.20;44.10
30288;DHT22;17103;48.316;11.558;2022-07-23T14:37:30;29.20;44.40
30288;DHT22;17103;48.316;11.558;2022-07-23T14:39:56;29.20;44.40
30288;DHT22;17103;48.316;11.558;2022-07-23T14:42:22;29.20;44.30
30288;DHT22;17103;48.316;11.558;2022-07-23T14:44:48;29.20;44.30
30288;DHT22;17103;48.316;11.558;2022-07-23T14:47:14;29.20;44.50
30288;DHT22;17103;48.316;11.558;2022-07-23T14:49:40;29.20;45.00
30288;DHT22;17103;48.316;11.558;2022-07-23T14:52:06;29.20;44.60
30288;DHT22;17103;48.316;11.558;2022-07-23T14:54:32;29.30;44.40
30288;DHT22;17103;48.316;11.558;2022-07-23T14:56:58;29.30;44.40
30288;DHT22;17103;48.316;11.558;2022-07-23T14:59:25;29.30;44.40
30288;DHT22;17103;48.316;11.558;2022-07-23T15:01:51;29.40;44.30
30288;DHT22;17103;48.316;11.558;2022-07-23T15:04:18;29.40;44.30
30288;DHT22;17103;48.316;11.558;2022-07-23T15:06:47;29.50;44.30
30288;DHT22;17103;48.316;11.558;2022-07-23T15:09:15;29.60;44.20
30288;DHT22;17103;48.316;11.558;2022-07-23T15:11:44;29.60;43.80
30288;DHT22;17103;48.316;11.558;2022-07-23T15:14:12;29.70;43.80
30288;DHT22;17103;48.316;11.558;2022-07-23T15:16:38;29.70;43.70
30288;DHT22;17103;48.316;11.558;2022-07-23T15:19:04;29.80;43.80
30288;DHT22;17103;48.316;11.558;2022-07-23T15:21:30;29.80;43.60
30288;DHT22;17103;48.316;11.558;2022-07-23T15:23:58;29.80;43.60
30288;DHT22;17103;48.316;11.558;2022-07-23T15:26:30;29.80;43.50
30288;DHT22;17103;48.316;11.558;2022-07-23T15:28:56;29.80;43.30
30288;DHT22;17103;48.316;11.558;2022-07-23T15:31:24;29.90;43.50
30288;DHT22;17103;48.316;11.558;2022-07-23T15:33:55;29.90;43.50
30288;DHT22;17103;48.316;11.558;2022-07-23T15:36:22;30.00;43.50
30288;DHT22;17103;48.316;11.558;2022-07-23T15:38:57;30.10;43.60
30288;DHT22;17103;48.316;11.558;2022-07-23T15:44:25;30.20;43.40